Time;durP1;ratioP1;P1;durP2;ratioP2;P2;SDS_P1;SDS_P2;PMS_P1;PMS_P2;Temp;Humidity;BMP_temperature;BMP_pressure;BME280_temperature;BME280_humidity;BME280_pressure;Samples;Min_cycle;Max_cycle;Signal;HPM_P1;HPM_P2
2022/07/16 00:01:59;;;;;;;1.73;1.20;;;12.10;99.90;;;;;;5109331;28;20225;-52
2022/07/16 00:04:27;;;;;;;3.83;1.20;;;12.00;99.90;;;;;;5109753;28;20304;-51
2022/07/16 00:06:55;;;;;;;2.20;1.40;;;12.00;99.90;;;;;;5108836;28;20228;-51
2022/07/16 00:09:25;;;;;;;1.40;0.93;;;11.90;99.90;;;;;;5109900;28;20272;-51
2022/07/16 00:11:53;;;;;;;2.63;1.20;;;11.90;99.90;;;;;;5113558;28;20223;-52
2022/07/16 00:14:21;;;;;;;2.07;1.10;;;11.90;99.90;;;;;;5113254;28;20699;-52
2022/07/16 00:16:49;;;;;;;2.93;1.20;;;11.90;99.90;;;;;;5113713;28;20204;-51
2022/07/16 00:19:16;;;;;;;1.50;1.30;;;11.80;99.90;;;;;;5112871;28;20640;-52
2022/07/16 00:21:44;;;;;;;1.67;1.30;;;11.80;99.90;;;;;;5113531;28;20203;-52
2022/07/16 00:24:13;;;;;;;2.67;1.33;;;11.80;99.90;;;;;;5113643;28;20232;-52
2022/07/16 00:26:43;;;;;;;1.80;1.10;;;11.70;99.90;;;;;;5113307;28;20319;-52
2022/07/16 00:29:12;;;;;;;1.27;1.00;;;11.70;99.90;;;;;;5113527;28;20207;-52
2022/07/16 00:31:40;;;;;;;2.63;1.43;;;11.70;99.90;;;;;;5112861;28;20254;-52
2022/07/16 00:34:08;;;;;;;3.40;1.40;;;11.70;99.90;;;;;;5113729;28;20642;-51
2022/07/16 00:36:36;;;;;;;2.83;1.40;;;11.70;99.90;;;;;;5112836;28;20260;-51
2022/07/16 00:39:05;;;;;;;3.00;1.40;;;11.70;99.90;;;;;;5113694;28;20614;-52
2022/07/16 00:41:34;;;;;;;1.70;1.20;;;11.60;99.90;;;;;;5113294;28;20249;-51
2022/07/16 00:44:05;;;;;;;2.83;1.30;;;11.60;99.90;;;;;;5111839;28;20256;-52
2022/07/16 00:46:34;;;;;;;1.43;1.03;;;11.60;99.90;;;;;;5113403;28;20272;-51
2022/07/16 00:49:03;;;;;;;1.90;1.30;;;11.60;99.90;;;;;;5112837;28;20211;-51
2022/07/16 00:51:32;;;;;;;2.10;1.50;;;11.50;99.90;;;;;;5112309;28;20669;-51
2022/07/16 00:54:00;;;;;;;3.80;1.60;;;11.50;99.90;;;;;;5113098;28;20303;-51
2022/07/16 00:56:28;;;;;;;5.27;1.77;;;11.50;99.90;;;;;;5112868;28;20216;-51
2022/07/16 00:58:57;;;;;;;1.57;1.00;;;11.40;99.90;;;;;;5113173;28;20212;-51
2022/07/16 01:01:27;;;;;;;1.53;1.20;;;11.40;99.90;;;;;;5112645;28;20207;-51
2022/07/16 01:03:55;;;;;;;3.47;1.50;;;11.30;99.90;;;;;;5112718;28;20300;-52
2022/07/16 01:06:23;;;;;;;2.83;1.20;;;11.30;99.90;;;;;;5112017;28;20329;-51
2022/07/16 01:08:51;;;;;;;1.37;1.23;;;11.30;99.90;;;;;;5112075;28;20208;-50
2022/07/16 01:11:21;;;;;;;2.03;1.30;;;11.30;99.90;;;;;;5112694;28;20264;-51
2022/07/16 01:13:51;;;;;;;2.20;1.60;;;11.30;99.90;;;;;;5111886;28;20228;-51
2022/07/16 01:16:20;;;;;;;4.87;1.53;;;11.30;99.90;;;;;;5112854;28;20208;-50
2022/07/16 01:18:50;;;;;;;3.33;1.53;;;11.30;99.90;;;;;;5111825;28;20207;-51
2022/07/16 01:21:18;;;;;;;1.13;1.03;;;11.20;99.90;;;;;;5111568;28;20208;-51
2022/07/16 01:23:49;;;;;;;3.20;1.60;;;11.30;99.90;;;;;;5111589;28;20281;-52
2022/07/16 01:26:17;;;;;;;1.50;1.30;;;11.30;99.90;;;;;;5112469;28;20199;-51
2022/07/16 01:28:46;;;;;;;2.80;1.60;;;11.30;99.90;;;;;;5112270;28;20239;-52
2022/07/16 01:31:14;;;;;;;1.70;1.20;;;11.30;99.90;;;;;;5112161;28;20215;-51
2022/07/16 01:33:42;;;;;;;1.50;1.40;;;11.30;99.90;;;;;;5111462;28;20239;-52
2022/07/16 01:36:12;;;;;;;2.67;1.23;;;11.30;99.90;;;;;;5111540;28;20211;-52
2022/07/16 01:38:41;;;;;;;2.60;1.20;;;11.30;99.90;;;;;;5112029;28;20669;-51
2022/07/16 01:41:12;;;;;;;1.73;1.10;;;11.30;99.90;;;;;;5111741;28;20207;-52
2022/07/16 01:43:40;;;;;;;1.97;1.30;;;11.30;99.90;;;;;;5111125;28;20227;-51
2022/07/16 01:46:08;;;;;;;2.30;1.60;;;11.30;99.90;;;;;;5111739;28;20215;-51
2022/07/16 01:48:36;;;;;;;1.90;1.20;;;11.30;99.90;;;;;;5111352;28;20208;-52
2022/07/16 01:51:05;;;;;;;4.27;1.40;;;11.30;99.90;;;;;;5109402;28;20203;-51
2022/07/16 01:53:33;;;;;;;3.43;1.33;;;11.20;99.90;;;;;;5111470;28;20284;-51
2022/07/16 01:56:01;;;;;;;2.07;1.63;;;11.30;99.90;;;;;;5111849;28;20207;-51
2022/07/16 01:58:37;;;;;;;2.37;1.50;;;11.30;99.90;;;;;;5111639;28;20282;-51
2022/07/16 02:01:05;;;;;;;5.33;1.47;;;11.30;99.90;;;;;;5110764;28;20668;-52
2022/07/16 02:03:33;;;;;;;2.70;1.57;;;11.20;99.90;;;;;;5111505;28;20220;-52
2022/07/16 02:06:02;;;;;;;2.53;1.60;;;11.20;99.90;;;;;;5103205;28;20735;-52
2022/07/16 02:08:30;;;;;;;2.57;1.60;;;11.20;99.90;;;;;;5111714;28;20211;-51
2022/07/16 02:10:58;;;;;;;1.90;1.40;;;11.20;99.90;;;;;;5111676;28;20251;-51
2022/07/16 02:13:26;;;;;;;1.97;1.40;;;11.10;99.90;;;;;;5111098;28;20215;-52
2022/07/16 02:15:55;;;;;;;1.67;1.20;;;11.10;99.90;;;;;;5111566;28;20344;-52
2022/07/16 02:18:23;;;;;;;2.33;1.53;;;11.00;99.90;;;;;;5110711;28;20203;-51
2022/07/16 02:20:52;;;;;;;1.57;1.40;;;11.00;99.90;;;;;;5111404;28;20219;-52
2022/07/16 02:23:20;;;;;;;3.00;1.53;;;11.00;99.90;;;;;;5110641;28;20208;-51
2022/07/16 02:25:48;;;;;;;2.83;1.47;;;11.00;99.90;;;;;;5111444;28;20265;-51
2022/07/16 02:28:16;;;;;;;3.50;1.70;;;11.10;99.90;;;;;;5111157;28;20215;-51
2022/07/16 02:30:46;;;;;;;2.50;1.80;;;11.10;99.90;;;;;;5111284;28;20207;-51
2022/07/16 02:33:18;;;;;;;1.67;1.57;;;11.10;99.90;;;;;;5113817;28;20227;-50
2022/07/16 02:35:46;;;;;;;2.20;1.70;;;11.10;99.90;;;;;;5113530;28;20207;-52
2022/07/16 02:38:15;;;;;;;2.50;1.70;;;11.10;99.90;;;;;;5112102;28;20203;-52
2022/07/16 02:40:43;;;;;;;2.50;1.10;;;11.10;99.90;;;;;;5106799;28;20200;-51
2022/07/16 02:43:12;;;;;;;4.23;1.70;;;11.10;99.90;;;;;;5110960;28;20203;-51
2022/07/16 02:45:42;;;;;;;2.37;1.77;;;11.10;99.90;;;;;;5110384;28;20744;-52
2022/07/16 02:48:12;;;;;;;4.90;1.70;;;11.10;99.90;;;;;;5109691;28;20260;-52
2022/07/16 02:50:42;;;;;;;1.97;1.60;;;11.20;99.90;;;;;;5111124;28;20212;-52
2022/07/16 02:53:10;;;;;;;3.73;1.73;;;11.20;99.90;;;;;;5110577;28;20224;-52
2022/07/16 02:55:38;;;;;;;2.47;1.47;;;11.20;99.90;;;;;;5110719;28;20259;-51
2022/07/16 02:58:06;;;;;;;2.70;1.60;;;11.20;99.90;;;;;;5111276;28;20211;-52
2022/07/16 03:00:34;;;;;;;2.97;1.50;;;11.30;99.90;;;;;;5110266;28;20212;-52
2022/07/16 03:03:02;;;;;;;2.73;1.40;;;11.40;99.90;;;;;;5111026;28;20260;-52
2022/07/16 03:05:31;;;;;;;2.50;1.40;;;11.40;99.90;;;;;;5110714;28;20314;-51
2022/07/16 03:08:00;;;;;;;3.33;1.50;;;11.40;99.90;;;;;;5110403;28;20207;-52
2022/07/16 03:10:28;;;;;;;2.57;1.60;;;11.40;99.90;;;;;;5110728;28;20207;-52
2022/07/16 03:12:56;;;;;;;4.10;1.60;;;11.40;99.90;;;;;;5110081;28;20288;-52
2022/07/16 03:15:24;;;;;;;2.23;1.67;;;11.40;99.90;;;;;;5110044;28;20235;-52
2022/07/16 03:17:52;;;;;;;3.03;1.80;;;11.40;99.90;;;;;;5109901;28;20204;-52
2022/07/16 03:20:21;;;;;;;1.70;1.60;;;11.40;99.90;;;;;;5110311;28;20243;-52
2022/07/16 03:22:49;;;;;;;2.33;1.83;;;11.40;99.90;;;;;;5109989;28;20254;-52
2022/07/16 03:25:18;;;;;;;3.07;1.40;;;11.40;99.90;;;;;;5110234;28;20655;-51
2022/07/16 03:27:47;;;;;;;2.93;1.70;;;11.40;99.90;;;;;;5110076;28;20199;-52
2022/07/16 03:30:17;;;;;;;2.70;1.60;;;11.40;99.90;;;;;;5109972;28;20260;-51
2022/07/16 03:32:45;;;;;;;3.80;1.73;;;11.40;99.90;;;;;;5109911;28;20277;-52
2022/07/16 03:35:14;;;;;;;3.97;1.63;;;11.30;99.90;;;;;;5110103;28;20855;-51
2022/07/16 03:40:30;;;;;;;3.00;1.77;;;11.30;99.90;;;;;;5109804;28;20208;-52
2022/07/16 03:42:58;;;;;;;3.60;1.87;;;11.30;99.90;;;;;;5110128;28;20207;-52
2022/07/16 03:45:26;;;;;;;2.47;1.57;;;11.30;99.90;;;;;;5109345;28;20272;-51
2022/07/16 03:47:54;;;;;;;2.87;1.47;;;11.30;99.90;;;;;;5110007;28;20207;-51
2022/07/16 03:50:22;;;;;;;1.70;1.60;;;11.30;99.90;;;;;;5109503;28;20206;-52
2022/07/16 03:52:50;;;;;;;1.70;1.50;;;11.30;99.90;;;;;;5109056;28;20207;-51
2022/07/16 03:55:18;;;;;;;1.97;1.60;;;11.30;99.90;;;;;;5109406;28;20284;-51
2022/07/16 03:57:48;;;;;;;2.70;1.73;;;11.30;99.90;;;;;;5109942;28;20249;-52
2022/07/16 04:00:16;;;;;;;3.33;2.10;;;11.30;99.90;;;;;;5109633;28;20235;-52
2022/07/16 04:02:44;;;;;;;4.20;1.93;;;11.30;99.90;;;;;;5109351;28;20276;-52
2022/07/16 04:05:12;;;;;;;4.03;2.00;;;11.30;99.90;;;;;;5109846;28;20596;-52
2022/07/16 04:07:40;;;;;;;2.37;1.97;;;11.30;99.90;;;;;;5109575;28;20315;-52
2022/07/16 04:10:09;;;;;;;3.67;1.83;;;11.40;99.90;;;;;;5109428;28;20207;-52
2022/07/16 04:12:37;;;;;;;3.77;1.97;;;11.50;99.90;;;;;;5109439;28;20214;-50
2022/07/16 04:15:07;;;;;;;2.90;2.00;;;11.50;99.90;;;;;;5109072;28;20309;-51
2022/07/16 04:17:36;;;;;;;3.30;1.97;;;11.60;99.90;;;;;;5109084;28;20208;-52
2022/07/16 04:20:06;;;;;;;2.20;1.67;;;11.70;99.90;;;;;;5109499;28;20247;-52
2022/07/16 04:22:34;;;;;;;4.03;1.90;;;11.80;99.90;;;;;;5109114;28;20200;-52
2022/07/16 04:25:02;;;;;;;2.80;1.70;;;12.00;99.90;;;;;;5095623;28;20220;-51
2022/07/16 04:27:30;;;;;;;4.10;2.03;;;12.80;99.90;;;;;;5109516;28;20203;-51
2022/07/16 04:29:58;;;;;;;1.93;1.57;;;13.50;99.90;;;;;;5108877;28;20235;-52
2022/07/16 04:32:27;;;;;;;3.60;1.87;;;14.40;99.90;;;;;;5109449;28;20208;-52
2022/07/16 04:34:55;;;;;;;2.20;1.57;;;14.90;99.90;;;;;;5108432;28;20245;-52
2022/07/16 04:37:25;;;;;;;3.28;1.92;;;15.10;99.90;;;;;;5109208;28;20207;-51
2022/07/16 04:39:53;;;;;;;2.25;2.00;;;15.20;99.90;;;;;;5108781;28;20689;-52
2022/07/16 04:42:21;;;;;;;3.43;2.00;;;15.10;99.90;;;;;;5109518;28;20215;-51
2022/07/16 04:44:49;;;;;;;2.57;1.90;;;14.60;99.90;;;;;;5109084;28;20291;-51
2022/07/16 04:47:17;;;;;;;2.20;1.70;;;14.10;99.90;;;;;;5108693;28;20272;-51
2022/07/16 04:49:47;;;;;;;3.37;1.80;;;13.80;99.90;;;;;;5109380;28;20207;-52
2022/07/16 04:52:15;;;;;;;2.67;1.90;;;13.60;99.90;;;;;;5093200;28;20273;-52
2022/07/16 04:54:43;;;;;;;2.60;1.90;;;13.40;99.90;;;;;;5105320;28;20257;-51
2022/07/16 04:57:11;;;;;;;3.60;1.97;;;13.30;99.90;;;;;;5109233;28;20215;-51
2022/07/16 04:59:39;;;;;;;1.90;1.60;;;13.20;99.90;;;;;;5112108;28;20746;-51
2022/07/16 05:04:54;;;;;;;2.17;1.70;;;13.10;99.90;;;;;;5099763;28;20703;-52
2022/07/16 05:07:22;;;;;;;2.77;1.70;;;13.10;99.90;;;;;;5112628;28;20269;-51
2022/07/16 05:09:50;;;;;;;2.40;1.83;;;13.20;99.90;;;;;;5112962;28;20196;-50
2022/07/16 05:12:18;;;;;;;2.40;1.70;;;13.20;99.90;;;;;;5113049;28;20264;-51
2022/07/16 05:14:46;;;;;;;3.57;1.80;;;13.20;99.90;;;;;;5112183;28;20219;-50
2022/07/16 05:17:14;;;;;;;2.27;1.87;;;13.20;99.90;;;;;;5112547;28;20211;-51
2022/07/16 05:19:42;;;;;;;3.07;2.00;;;13.20;99.90;;;;;;5112779;28;20275;-52
2022/07/16 05:22:12;;;;;;;2.63;1.90;;;13.20;99.90;;;;;;5112298;28;20307;-50
2022/07/16 05:24:40;;;;;;;2.67;1.93;;;13.20;99.90;;;;;;5112452;28;20231;-52
2022/07/16 05:27:08;;;;;;;2.10;1.90;;;13.30;99.90;;;;;;5103177;28;20641;-51
2022/07/16 05:29:36;;;;;;;1.97;1.73;;;13.20;99.90;;;;;;5103044;27;20203;-51
2022/07/16 05:32:05;;;;;;;3.47;2.00;;;13.30;99.90;;;;;;5096404;28;20233;-51
2022/07/16 05:34:33;;;;;;;4.63;2.37;;;13.40;99.90;;;;;;5092843;28;20625;-51
2022/07/16 05:37:01;;;;;;;3.87;2.00;;;13.40;99.90;;;;;;5093298;28;20666;-51
2022/07/16 05:39:32;;;;;;;1.97;1.80;;;13.50;99.90;;;;;;5093730;28;20207;-52
2022/07/16 05:42:00;;;;;;;1.77;1.67;;;13.50;99.90;;;;;;5092746;28;20253;-52
2022/07/16 05:44:28;;;;;;;2.27;1.77;;;13.60;99.90;;;;;;5088364;28;20281;-52
2022/07/16 05:47:17;;;;;;;3.83;1.70;;;13.60;99.90;;;;;;5099410;28;20246;-50
2022/07/16 05:49:45;;;;;;;2.90;2.00;;;13.60;99.90;;;;;;5099542;28;20208;-51
2022/07/16 05:52:14;;;;;;;4.93;2.00;;;13.70;99.90;;;;;;5091657;28;20201;-51
2022/07/16 05:54:43;;;;;;;4.13;1.97;;;13.70;99.90;;;;;;5092210;28;20224;-52
2022/07/16 05:57:12;;;;;;;2.17;1.90;;;13.80;99.90;;;;;;5094659;28;20196;-52
2022/07/16 05:59:40;;;;;;;3.43;1.83;;;13.80;99.90;;;;;;5099471;28;20208;-52
2022/07/16 06:02:08;;;;;;;3.33;2.00;;;13.90;99.90;;;;;;5094568;28;20208;-52
2022/07/16 06:04:36;;;;;;;3.57;2.03;;;13.90;99.90;;;;;;5099768;28;20224;-52
2022/07/16 06:07:04;;;;;;;4.43;2.13;;;13.90;99.90;;;;;;5090632;28;20205;-52
2022/07/16 06:09:32;;;;;;;4.83;2.10;;;14.00;99.90;;;;;;5109106;28;20261;-52
2022/07/16 06:12:02;;;;;;;1.90;1.67;;;13.90;99.90;;;;;;5089906;28;20312;-51
2022/07/16 06:14:30;;;;;;;3.07;1.93;;;13.90;99.90;;;;;;5107195;28;20215;-52
2022/07/16 06:16:58;;;;;;;4.63;2.23;;;13.90;99.90;;;;;;5109064;28;20749;-52
2022/07/16 06:19:26;;;;;;;3.67;1.80;;;13.90;99.90;;;;;;5108596;28;20211;-52
2022/07/16 06:21:54;;;;;;;2.70;1.90;;;13.90;99.90;;;;;;5107842;28;20200;-51
2022/07/16 06:24:22;;;;;;;5.17;2.10;;;14.00;99.90;;;;;;5109575;28;20224;-53
2022/07/16 06:26:50;;;;;;;2.37;2.03;;;14.10;99.90;;;;;;5110138;28;20204;-52
2022/07/16 06:29:19;;;;;;;2.50;1.93;;;14.10;99.90;;;;;;5098861;28;20238;-52
2022/07/16 06:31:48;;;;;;;2.50;1.90;;;14.20;99.90;;;;;;5106672;28;20199;-52
2022/07/16 06:34:16;;;;;;;5.27;2.30;;;14.30;99.90;;;;;;5109274;28;20343;-52
2022/07/16 06:36:44;;;;;;;4.20;2.30;;;14.40;99.90;;;;;;5109032;28;20707;-52
2022/07/16 06:39:13;;;;;;;3.97;2.50;;;15.30;99.90;;;;;;5110519;28;20204;-53
2022/07/16 06:41:41;;;;;;;3.58;2.03;;;16.80;99.90;;;;;;5110243;28;20241;-53
2022/07/16 06:44:09;;;;;;;1.90;1.80;;;17.60;99.90;;;;;;5109521;28;20235;-52
2022/07/16 06:46:39;;;;;;;4.75;2.05;;;18.60;99.90;;;;;;5108381;28;20304;-52
2022/07/16 06:49:07;;;;;;;3.60;2.33;;;19.10;99.90;;;;;;5108808;28;20276;-52
2022/07/16 06:51:35;;;;;;;3.78;2.70;;;19.40;99.90;;;;;;5108886;28;20656;-52
2022/07/16 06:54:03;;;;;;;4.30;2.20;;;19.80;99.90;;;;;;5109358;28;20265;-52
2022/07/16 06:56:31;;;;;;;4.00;2.40;;;20.30;99.90;;;;;;5108299;28;20231;-51
2022/07/16 06:58:59;;;;;;;4.15;2.40;;;20.60;99.90;;;;;;5106162;28;20834;-52
2022/07/16 07:01:27;;;;;;;4.50;2.30;;;20.90;99.90;;;;;;5095565;28;21398;-52
2022/07/16 07:03:57;;;;;;;6.07;2.17;;;21.10;99.90;;;;;;5100000;28;20231;-53
2022/07/16 07:06:25;;;;;;;4.55;2.15;;;21.20;99.90;;;;;;5095519;27;20334;-53
2022/07/16 07:08:53;;;;;;;4.65;2.28;;;21.50;99.90;;;;;;5094951;28;20204;-52
2022/07/16 07:11:23;;;;;;;3.70;2.50;;;21.60;99.90;;;;;;5106774;28;20253;-52
2022/07/16 07:13:51;;;;;;;5.65;2.17;;;21.90;99.90;;;;;;5109093;28;20296;-52
2022/07/16 07:16:19;;;;;;;2.83;2.22;;;22.10;99.90;;;;;;5108191;28;20231;-52
2022/07/16 07:18:47;;;;;;;5.78;2.28;;;22.50;99.90;;;;;;5109096;28;20207;-52
2022/07/16 07:21:17;;;;;;;3.38;2.35;;;22.70;99.90;;;;;;5107897;28;20655;-53
2022/07/16 07:23:45;;;;;;;2.85;2.47;;;22.90;99.90;;;;;;5107896;28;20220;-53
2022/07/16 07:26:13;;;;;;;3.10;1.98;;;23.30;99.90;;;;;;5109202;28;20626;-53
2022/07/16 07:28:41;;;;;;;5.82;2.05;;;22.60;99.90;;;;;;5108474;28;20284;-53
2022/07/16 07:31:09;;;;;;;5.00;2.20;;;22.00;99.90;;;;;;5108806;28;20253;-53
2022/07/16 07:33:38;;;;;;;3.40;2.38;;;21.50;99.90;;;;;;5108658;28;20276;-52
2022/07/16 07:36:06;;;;;;;4.40;2.20;;;20.90;99.90;;;;;;5108507;28;20307;-52
2022/07/16 07:38:36;;;;;;;4.18;2.28;;;21.10;99.90;;;;;;5109377;28;20618;-52
2022/07/16 07:41:04;;;;;;;2.85;2.10;;;21.40;99.90;;;;;;5107829;28;20260;-52
2022/07/16 07:43:32;;;;;;;3.65;2.25;;;21.80;99.90;;;;;;5108232;28;20562;-52
2022/07/16 07:46:01;;;;;;;3.85;2.50;;;22.00;99.90;;;;;;5108395;28;20196;-52
2022/07/16 07:48:29;;;;;;;14.48;3.60;;;21.70;99.90;;;;;;5108446;28;20619;-52
2022/07/16 07:50:57;;;;;;;3.40;2.78;;;21.70;99.90;;;;;;5108539;28;20844;-52
2022/07/16 07:53:25;;;;;;;8.60;3.35;;;22.20;99.90;;;;;;5108702;28;20284;-52
2022/07/16 07:55:55;;;;;;;9.18;3.47;;;22.00;99.90;;;;;;5104016;28;20231;-52
2022/07/16 07:58:23;;;;;;;5.18;3.00;;;21.70;99.90;;;;;;5107693;28;20203;-52
2022/07/16 08:00:54;;;;;;;4.13;2.97;;;21.50;99.90;;;;;;5106674;28;20200;-52
2022/07/16 08:03:42;;;;;;;5.03;3.22;;;21.70;99.90;;;;;;5104940;28;20207;-52
2022/07/16 08:06:10;;;;;;;5.53;3.83;;;22.20;99.90;;;;;;5104818;28;20199;-53
2022/07/16 08:08:38;;;;;;;5.15;3.80;;;21.90;99.90;;;;;;5105937;28;20244;-52
2022/07/16 08:11:08;;;;;;;5.82;4.57;;;21.80;99.90;;;;;;5107905;28;20207;-52
2022/07/16 08:13:36;;;;;;;4.82;4.00;;;21.70;99.90;;;;;;5106142;28;20252;-53
2022/07/16 08:16:21;;;;;;;5.57;3.90;;;21.70;99.90;;;;;;5106275;28;20231;-52
2022/07/16 08:18:49;;;;;;;5.13;3.78;;;21.70;99.90;;;;;;5108291;28;20207;-52
2022/07/16 08:21:17;;;;;;;5.43;3.75;;;21.70;99.90;;;;;;5107572;28;20661;-52
2022/07/16 08:26:33;;;;;;;6.60;4.03;;;21.40;99.90;;;;;;5107398;28;20208;-52
2022/07/16 08:29:01;;;;;;;18.02;5.30;;;21.50;99.90;;;;;;5107784;28;20199;-51
2022/07/16 08:31:29;;;;;;;6.22;3.65;;;21.50;99.90;;;;;;5108973;28;20200;-52
2022/07/16 08:33:58;;;;;;;8.77;4.97;;;21.60;99.90;;;;;;5111118;28;20234;-52
2022/07/16 08:36:26;;;;;;;8.10;5.10;;;21.60;99.90;;;;;;5111513;28;20227;-51
2022/07/16 08:38:54;;;;;;;9.85;4.93;;;21.70;99.90;;;;;;5112340;28;20607;-52
2022/07/16 08:41:23;;;;;;;6.85;5.35;;;21.80;99.90;;;;;;5111882;28;20656;-52
2022/07/16 08:43:52;;;;;;;7.82;5.43;;;21.60;99.90;;;;;;5111639;28;20734;-52
2022/07/16 08:46:21;;;;;;;8.57;5.15;;;21.40;99.90;;;;;;5111490;28;20212;-52
2022/07/16 08:48:50;;;;;;;8.65;5.50;;;21.20;99.90;;;;;;5111881;28;20589;-52
2022/07/16 08:51:21;;;;;;;8.93;5.70;;;21.10;99.90;;;;;;5111331;28;20204;-52
2022/07/16 08:53:51;;;;;;;9.98;5.60;;;21.30;99.90;;;;;;5111775;28;20366;-51
2022/07/16 08:56:19;;;;;;;9.55;5.80;;;21.50;99.90;;;;;;5111290;28;20227;-52
2022/07/16 08:58:47;;;;;;;7.35;5.10;;;21.50;99.90;;;;;;5112023;28;20203;-52
2022/07/16 09:01:17;;;;;;;8.38;5.75;;;21.50;99.90;;;;;;5110848;28;20211;-52
2022/07/16 09:03:45;;;;;;;8.70;6.10;;;21.60;99.90;;;;;;5111632;28;20227;-52
2022/07/16 09:06:13;;;;;;;7.90;5.80;;;21.70;99.90;;;;;;5111250;28;20268;-52
2022/07/16 09:08:41;;;;;;;6.40;5.80;;;22.10;99.90;;;;;;5111041;28;20204;-52
2022/07/16 09:11:21;;;;;;;8.05;5.70;;;22.10;99.90;;;;;;5111392;28;20204;-52
2022/07/16 09:14:04;;;;;;;8.32;5.88;;;22.20;99.90;;;;;;5110520;28;20280;-51
2022/07/16 09:16:36;;;;;;;9.05;6.07;;;22.10;99.90;;;;;;5110309;28;20223;-52
2022/07/16 09:19:10;;;;;;;7.30;6.43;;;22.30;99.90;;;;;;5111473;28;20223;-52
2022/07/16 09:22:01;;;;;;;7.10;6.13;;;22.00;99.90;;;;;;5110435;28;20786;-52
2022/07/16 09:24:38;;;;;;;7.68;5.97;;;22.30;99.90;;;;;;5110751;28;20648;-52
2022/07/16 09:27:08;;;;;;;6.07;5.47;;;22.30;99.90;;;;;;5111031;28;20299;-52
2022/07/16 09:29:44;;;;;;;9.75;5.80;;;22.20;99.90;;;;;;5110470;28;20212;-52
2022/07/16 09:32:15;;;;;;;6.47;4.50;;;22.30;99.90;;;;;;5110454;28;20209;-51
2022/07/16 09:34:43;;;;;;;8.75;4.47;;;22.50;99.90;;;;;;5110542;28;20254;-52
2022/07/16 09:37:11;;;;;;;6.15;4.40;;;23.00;99.90;;;;;;5110427;28;20227;-51
2022/07/16 09:39:47;;;;;;;5.53;4.63;;;22.80;99.90;;;;;;5106121;27;20252;-52
2022/07/16 09:42:16;;;;;;;4.85;3.78;;;22.60;99.90;;;;;;5102825;28;20280;-51
2022/07/16 09:44:45;;;;;;;3.22;2.65;;;22.70;99.90;;;;;;5101719;28;20823;-52
2022/07/16 09:47:15;;;;;;;4.10;3.63;;;23.00;99.90;;;;;;5110369;28;20615;-52
2022/07/16 09:49:53;;;;;;;4.60;3.85;;;22.90;99.90;;;;;;5108074;27;20214;-52
2022/07/16 09:52:30;;;;;;;5.95;3.92;;;22.90;99.90;;;;;;5107963;28;20252;-52
2022/07/16 09:54:58;;;;;;;5.00;3.75;;;22.80;99.90;;;;;;5109731;28;20227;-52
2022/07/16 09:57:28;;;;;;;5.00;3.42;;;22.90;99.90;;;;;;5109580;28;20272;-52
2022/07/16 09:59:58;;;;;;;8.63;3.83;;;22.80;99.90;;;;;;5109507;28;20292;-52
2022/07/16 10:02:30;;;;;;;3.45;3.03;;;22.90;99.90;;;;;;5108418;28;20249;-52
2022/07/16 10:05:00;;;;;;;5.40;3.15;;;23.20;99.90;;;;;;5110166;28;20600;-53
2022/07/16 10:07:32;;;;;;;3.20;2.72;;;23.40;99.90;;;;;;5108553;28;20568;-53
2022/07/16 10:10:01;;;;;;;2.17;1.98;;;23.60;99.90;;;;;;5110571;28;20864;-52
2022/07/16 10:12:30;;;;;;;2.88;2.25;;;23.70;99.90;;;;;;5110386;28;20200;-53
2022/07/16 10:15:00;;;;;;;3.65;1.80;;;23.70;99.90;;;;;;5109271;28;20227;-52
2022/07/16 10:17:34;;;;;;;3.47;1.85;;;23.50;99.90;;;;;;5110007;28;20749;-52
2022/07/16 10:20:09;;;;;;;5.72;2.17;;;23.40;99.90;;;;;;5109911;28;20702;-52
2022/07/16 10:22:39;;;;;;;13.27;2.40;;;23.60;99.90;;;;;;5109023;28;20755;-52
2022/07/16 10:25:16;;;;;;;2.28;1.92;;;23.80;99.90;;;;;;5110232;28;20231;-52
2022/07/16 10:27:45;;;;;;;1.92;1.70;;;24.20;99.90;;;;;;5109041;28;20195;-52
2022/07/16 10:30:19;;;;;;;4.28;1.65;;;24.10;99.90;;;;;;5109254;28;20207;-52
2022/07/16 10:33:13;;;;;;;6.00;1.98;;;24.00;99.90;;;;;;5110055;28;20242;-52
2022/07/16 10:35:44;;;;;;;1.73;1.60;;;23.70;99.40;;;;;;5107663;28;20653;-53
2022/07/16 10:38:14;;;;;;;2.53;1.65;;;23.60;99.60;;;;;;5109495;28;20231;-52
2022/07/16 10:41:05;;;;;;;2.35;1.70;;;23.70;99.90;;;;;;5103588;28;20207;-51
2022/07/16 10:43:34;;;;;;;2.97;1.75;;;23.50;99.30;;;;;;5109095;28;20285;-52
2022/07/16 10:46:04;;;;;;;2.53;1.85;;;23.70;99.90;;;;;;5109522;28;20262;-51
2022/07/16 10:49:12;;;;;;;1.83;1.70;;;23.80;99.90;;;;;;5108327;28;20648;-52
2022/07/16 10:51:58;;;;;;;4.28;1.92;;;24.30;99.90;;;;;;5109081;28;20286;-52
2022/07/16 10:54:29;;;;;;;2.70;1.88;;;24.40;99.80;;;;;;5107537;28;20611;-53
2022/07/16 10:57:00;;;;;;;3.35;1.42;;;24.00;98.70;;;;;;5109397;28;20220;-52
2022/07/16 10:59:30;;;;;;;1.48;1.38;;;23.90;99.30;;;;;;5108991;28;20253;-53
2022/07/16 11:02:01;;;;;;;1.85;1.40;;;24.00;99.20;;;;;;5108838;28;20237;-52
2022/07/16 11:04:36;;;;;;;1.83;1.10;;;23.80;98.50;;;;;;5106995;28;20605;-53
2022/07/16 11:07:08;;;;;;;1.95;1.20;;;23.30;98.50;;;;;;5105016;28;20868;-52
2022/07/16 11:09:40;;;;;;;4.00;1.63;;;23.00;98.50;;;;;;5108734;28;20249;-52
2022/07/16 11:12:12;;;;;;;2.67;1.20;;;22.70;98.10;;;;;;5108458;28;20540;-52
2022/07/16 11:14:41;;;;;;;1.70;1.40;;;22.60;98.70;;;;;;5107922;28;20219;-52
2022/07/16 11:17:10;;;;;;;2.40;1.38;;;23.00;99.30;;;;;;5105470;28;20200;-52
2022/07/16 11:19:40;;;;;;;1.98;1.33;;;23.40;99.10;;;;;;5107781;28;20215;-52
2022/07/16 11:22:11;;;;;;;1.30;1.00;;;23.70;96.90;;;;;;5105557;28;20207;-53
2022/07/16 11:24:46;;;;;;;2.90;1.30;;;23.70;96.80;;;;;;5108041;28;20235;-53
2022/07/16 11:27:14;;;;;;;2.92;1.30;;;23.60;96.80;;;;;;5105330;28;20725;-53
2022/07/16 11:29:42;;;;;;;1.60;1.30;;;23.40;97.50;;;;;;5107846;28;20200;-53
2022/07/16 11:32:14;;;;;;;1.75;1.20;;;23.40;97.80;;;;;;5107751;28;20288;-52
2022/07/16 11:34:43;;;;;;;1.75;1.15;;;23.30;97.10;;;;;;5108834;28;20590;-53
2022/07/16 11:37:11;;;;;;;2.90;1.40;;;23.40;96.60;;;;;;5108998;28;20238;-53
2022/07/16 11:39:39;;;;;;;5.38;1.38;;;23.60;96.90;;;;;;5107773;28;20224;-52
2022/07/16 11:42:08;;;;;;;1.38;1.20;;;24.00;97.20;;;;;;5108168;28;20257;-52
2022/07/16 11:44:39;;;;;;;2.03;1.30;;;24.40;96.40;;;;;;5107604;28;20704;-53
2022/07/16 11:47:08;;;;;;;3.35;1.20;;;24.60;96.40;;;;;;5107686;28;20672;-53
2022/07/16 11:49:38;;;;;;;1.00;0.90;;;24.50;95.50;;;;;;5108364;28;20208;-53
2022/07/16 11:52:11;;;;;;;1.58;1.13;;;24.40;94.90;;;;;;5107724;28;20207;-53
2022/07/16 11:54:41;;;;;;;2.42;1.40;;;24.10;94.30;;;;;;5108279;28;20276;-53
2022/07/16 11:57:11;;;;;;;1.98;1.40;;;24.10;94.60;;;;;;5108379;28;20281;-52
2022/07/16 11:59:47;;;;;;;2.78;1.10;;;24.10;93.70;;;;;;5107599;28;20219;-53
2022/07/16 12:02:18;;;;;;;2.20;1.20;;;23.80;93.40;;;;;;5096980;28;20199;-52
2022/07/16 12:04:49;;;;;;;2.08;1.38;;;23.50;93.60;;;;;;5091419;28;20215;-52
2022/07/16 12:07:31;;;;;;;1.90;1.30;;;23.40;93.90;;;;;;5094208;28;20750;-53
2022/07/16 12:10:01;;;;;;;1.98;1.20;;;23.70;94.10;;;;;;5102327;28;20324;-53
2022/07/16 12:12:31;;;;;;;2.88;1.40;;;23.60;94.30;;;;;;5111056;28;20200;-53
2022/07/16 12:15:00;;;;;;;2.08;1.42;;;23.50;93.60;;;;;;5110985;28;20658;-52
2022/07/16 12:17:46;;;;;;;1.92;1.45;;;23.20;94.20;;;;;;5108409;28;20210;-53
2022/07/16 12:20:18;;;;;;;3.28;1.45;;;23.10;94.70;;;;;;5109923;28;20270;-53
2022/07/16 12:22:59;;;;;;;1.60;1.27;;;23.30;94.80;;;;;;5107058;28;20225;-52
2022/07/16 12:25:35;;;;;;;1.98;1.35;;;23.40;94.50;;;;;;5112072;28;20296;-53
2022/07/16 12:28:07;;;;;;;4.22;1.45;;;23.20;94.40;;;;;;5111973;28;20208;-52
2022/07/16 12:30:38;;;;;;;2.90;1.27;;;23.20;93.40;;;;;;5109696;28;20283;-53
2022/07/16 12:33:09;;;;;;;2.25;1.48;;;23.30;93.80;;;;;;5108917;28;20356;-53
2022/07/16 12:35:40;;;;;;;1.75;1.40;;;23.50;94.10;;;;;;5107067;28;20711;-52
2022/07/16 12:38:10;;;;;;;3.05;1.60;;;23.70;93.80;;;;;;5109253;28;20906;-52
2022/07/16 12:40:40;;;;;;;2.72;1.60;;;24.00;93.70;;;;;;5110247;28;20200;-52
2022/07/16 12:43:09;;;;;;;1.85;1.48;;;24.30;94.10;;;;;;5107335;28;20208;-53
2022/07/16 12:45:37;;;;;;;2.97;1.33;;;24.60;94.00;;;;;;5108736;28;20223;-53
2022/07/16 12:48:05;;;;;;;5.30;1.88;;;24.60;92.60;;;;;;5103432;28;20583;-52
2022/07/16 12:50:35;;;;;;;4.85;1.50;;;24.40;91.40;;;;;;5109687;28;20231;-52
2022/07/16 12:53:03;;;;;;;2.75;1.40;;;24.30;91.20;;;;;;5109844;28;20260;-52
2022/07/16 13:01:04;;;;;;;2.80;1.50;;;24.60;91.40;;;;;;5108532;28;20195;-53
2022/07/16 13:03:33;;;;;;;3.38;1.60;;;24.60;89.30;;;;;;5108097;28;20210;-53
2022/07/16 13:06:02;;;;;;;2.13;1.30;;;24.60;90.10;;;;;;5104176;28;20218;-52
2022/07/16 13:08:31;;;;;;;2.65;1.30;;;24.50;90.60;;;;;;5105254;28;20613;-52
2022/07/16 13:11:00;;;;;;;2.00;1.38;;;24.30;90.30;;;;;;5109230;28;20260;-52
2022/07/16 13:13:29;;;;;;;1.52;1.40;;;24.10;90.20;;;;;;5107548;28;20239;-52